Time;durP1;ratioP1;P1;durP2;ratioP2;P2;SDS_P1;SDS_P2;PMS_P1;PMS_P2;Temp;Humidity;BMP_temperature;BMP_pressure;BME280_temperature;BME280_humidity;BME280_pressure;Samples;Min_cycle;Max_cycle;Signal;HPM_P1;HPM_P2
2021/12/09 00:00:52;;;;;;;;;;;23.20;27.70;;;;;;5162221;27;19975;-60
2021/12/09 00:03:19;;;;;;;;;;;23.20;27.60;;;;;;5167401;27;19934;-52
2021/12/09 00:05:46;;;;;;;;;;;22.90;27.80;;;;;;5161839;27;19927;-50
2021/12/09 00:08:12;;;;;;;;;;;23.00;27.60;;;;;;5162593;27;20338;-49
2021/12/09 00:10:38;;;;;;;;;;;23.00;27.60;;;;;;5168052;27;19922;-51
2021/12/09 00:13:04;;;;;;;;;;;23.10;27.40;;;;;;5162700;27;19938;-55
2021/12/09 00:15:30;;;;;;;;;;;22.70;27.80;;;;;;5162453;27;20105;-58
2021/12/09 00:17:55;;;;;;;;;;;22.80;27.70;;;;;;5166863;27;20429;-52
2021/12/09 00:20:21;;;;;;;;;;;22.80;27.60;;;;;;5161850;27;19923;-52
2021/12/09 00:22:47;;;;;;;;;;;22.90;27.60;;;;;;5167295;27;20491;-52
2021/12/09 00:25:14;;;;;;;;;;;22.90;27.60;;;;;;5161774;27;20382;-49
2021/12/09 00:27:40;;;;;;;;;;;22.90;27.50;;;;;;5162222;27;20386;-50
2021/12/09 00:30:06;;;;;;;;;;;23.00;27.30;;;;;;5167423;27;19931;-48
2021/12/09 00:32:32;;;;;;;;;;;22.90;27.40;;;;;;5162005;27;19930;-48
2021/12/09 00:34:58;;;;;;;;;;;23.00;27.20;;;;;;5161742;27;19923;-50
2021/12/09 00:37:50;;;;;;;;;;;22.90;27.30;;;;;;5167276;27;19923;-48
2021/12/09 00:40:16;;;;;;;;;;;22.90;27.20;;;;;;5159102;27;19923;-51
2021/12/09 00:42:42;;;;;;;;;;;22.90;27.20;;;;;;5161408;27;19941;-50
2021/12/09 00:45:07;;;;;;;;;;;23.00;27.10;;;;;;5167603;27;19931;-49
2021/12/09 00:47:33;;;;;;;;;;;23.00;27.10;;;;;;5162068;27;20118;-47
2021/12/09 00:49:59;;;;;;;;;;;23.00;27.20;;;;;;5167351;27;19975;-46
2021/12/09 00:52:25;;;;;;;;;;;23.10;27.10;;;;;;5161758;27;19926;-46
2021/12/09 00:54:51;;;;;;;;;;;23.00;27.20;;;;;;5161262;27;19923;-44
2021/12/09 00:57:17;;;;;;;;;;;23.10;27.20;;;;;;5166876;27;19926;-46
2021/12/09 00:59:43;;;;;;;;;;;23.10;27.20;;;;;;5161335;27;20286;-46
2021/12/09 01:02:10;;;;;;;;;;;23.20;27.00;;;;;;5161069;27;19933;-47
2021/12/09 01:04:39;;;;;;;;;;;23.20;27.10;;;;;;5167382;27;20293;-50
2021/12/09 01:07:05;;;;;;;;;;;23.00;27.30;;;;;;5161290;27;19987;-49
2021/12/09 01:09:30;;;;;;;;;;;23.00;27.30;;;;;;5166935;27;19922;-52
2021/12/09 01:11:56;;;;;;;;;;;23.00;27.30;;;;;;5161850;27;19930;-48
2021/12/09 01:14:22;;;;;;;;;;;23.00;27.30;;;;;;5161298;27;19963;-48
2021/12/09 01:16:48;;;;;;;;;;;23.00;27.20;;;;;;5166610;27;19934;-46
2021/12/09 01:19:14;;;;;;;;;;;23.00;27.20;;;;;;5160894;27;19945;-45
2021/12/09 01:21:39;;;;;;;;;;;23.00;27.20;;;;;;5161188;27;19991;-44
2021/12/09 01:24:05;;;;;;;;;;;23.20;27.10;;;;;;5167163;27;19923;-52
2021/12/09 01:26:31;;;;;;;;;;;23.10;27.10;;;;;;5161486;27;19923;-49
2021/12/09 01:29:02;;;;;;;;;;;23.00;27.30;;;;;;5168504;27;20017;-54
2021/12/09 01:31:32;;;;;;;;;;;23.00;27.30;;;;;;5169297;27;20031;-49
2021/12/09 01:34:02;;;;;;;;;;;22.90;27.50;;;;;;5164831;27;20173;-49
2021/12/09 01:36:29;;;;;;;;;;;22.90;27.40;;;;;;5170159;27;20009;-47
2021/12/09 01:38:54;;;;;;;;;;;23.00;27.40;;;;;;5164469;27;20307;-46
2021/12/09 01:41:20;;;;;;;;;;;22.90;27.60;;;;;;5164991;27;19923;-46
2021/12/09 01:43:46;;;;;;;;;;;22.90;27.50;;;;;;5170287;27;20326;-48
2021/12/09 01:46:13;;;;;;;;;;;23.00;27.50;;;;;;5165067;27;19931;-46
2021/12/09 01:48:39;;;;;;;;;;;22.90;27.60;;;;;;5146023;27;19929;-47
2021/12/09 01:51:04;;;;;;;;;;;23.00;27.60;;;;;;5170111;27;19922;-46
2021/12/09 01:53:30;;;;;;;;;;;22.90;27.60;;;;;;5164328;27;20445;-45
2021/12/09 01:55:57;;;;;;;;;;;23.00;27.60;;;;;;5169624;27;19934;-43
2021/12/09 01:58:23;;;;;;;;;;;23.10;27.40;;;;;;5164824;27;19973;-62
2021/12/09 02:00:49;;;;;;;;;;;23.10;27.50;;;;;;5164798;27;19923;-54
2021/12/09 02:03:14;;;;;;;;;;;22.40;28.40;;;;;;5170013;27;19922;-53
2021/12/09 02:05:41;;;;;;;;;;;22.50;28.20;;;;;;5164394;27;20331;-52
2021/12/09 02:08:07;;;;;;;;;;;22.60;28.20;;;;;;5164160;27;20098;-50
2021/12/09 02:10:33;;;;;;;;;;;22.60;28.20;;;;;;5169648;27;19928;-52
2021/12/09 02:12:59;;;;;;;;;;;22.60;28.30;;;;;;5164033;27;19930;-50
2021/12/09 02:15:26;;;;;;;;;;;22.60;28.20;;;;;;5166598;27;20022;-57
2021/12/09 02:17:52;;;;;;;;;;;22.60;28.20;;;;;;5167735;27;20267;-49
2021/12/09 02:20:21;;;;;;;;;;;22.60;28.20;;;;;;5164165;27;19969;-48
2021/12/09 02:22:48;;;;;;;;;;;22.60;28.30;;;;;;5169552;27;19937;-49
2021/12/09 02:25:14;;;;;;;;;;;22.60;28.20;;;;;;5164266;27;19926;-52
2021/12/09 02:27:40;;;;;;;;;;;22.70;28.10;;;;;;5163849;27;19927;-50
2021/12/09 02:30:06;;;;;;;;;;;22.70;28.20;;;;;;5169229;27;20017;-48
2021/12/09 02:32:32;;;;;;;;;;;22.70;28.00;;;;;;5163687;27;19930;-53
2021/12/09 02:34:57;;;;;;;;;;;22.70;28.10;;;;;;5144965;27;20331;-51
2021/12/09 02:37:23;;;;;;;;;;;22.70;28.10;;;;;;5169827;27;19923;-48
2021/12/09 02:39:49;;;;;;;;;;;22.70;28.10;;;;;;5144384;27;19926;-50
2021/12/09 02:42:15;;;;;;;;;;;22.80;28.20;;;;;;5169232;27;19923;-50
2021/12/09 02:44:41;;;;;;;;;;;22.70;28.30;;;;;;5163491;27;20378;-48
2021/12/09 02:47:07;;;;;;;;;;;22.80;28.20;;;;;;5163512;27;19975;-49
2021/12/09 02:49:33;;;;;;;;;;;22.80;28.10;;;;;;5168933;27;19923;-47
2021/12/09 02:51:59;;;;;;;;;;;22.80;28.00;;;;;;5163125;27;19927;-48
2021/12/09 02:54:25;;;;;;;;;;;22.90;27.90;;;;;;5163837;27;20046;-49
2021/12/09 02:56:52;;;;;;;;;;;22.80;27.90;;;;;;5169147;27;20328;-49
2021/12/09 02:59:18;;;;;;;;;;;22.90;27.80;;;;;;5163565;27;19926;-48
2021/12/09 03:02:07;;;;;;;;;;;22.90;27.70;;;;;;5169099;27;19958;-47
2021/12/09 03:04:42;;;;;;;;;;;23.00;27.70;;;;;;5168301;27;20029;-46
2021/12/09 03:07:09;;;;;;;;;;;23.00;27.50;;;;;;5144390;27;20022;-46
2021/12/09 03:09:35;;;;;;;;;;;23.10;27.40;;;;;;5166637;27;19944;-58
2021/12/09 03:12:05;;;;;;;;;;;23.20;27.40;;;;;;5165684;27;20017;-52
2021/12/09 03:14:31;;;;;;;;;;;22.80;27.70;;;;;;5163652;27;19933;-53
2021/12/09 03:16:56;;;;;;;;;;;22.80;27.70;;;;;;5168711;27;20289;-52
2021/12/09 03:19:22;;;;;;;;;;;22.90;27.50;;;;;;5163434;27;19923;-51
2021/12/09 03:21:48;;;;;;;;;;;23.00;27.40;;;;;;5163035;27;20481;-51
2021/12/09 03:24:15;;;;;;;;;;;22.90;27.40;;;;;;5168528;27;19961;-50
2021/12/09 03:26:42;;;;;;;;;;;22.90;27.50;;;;;;5162903;27;20223;-49
2021/12/09 03:29:08;;;;;;;;;;;22.90;27.40;;;;;;5162514;27;19935;-49
2021/12/09 03:31:37;;;;;;;;;;;22.90;27.50;;;;;;5168873;27;20013;-50
2021/12/09 03:34:03;;;;;;;;;;;23.00;27.40;;;;;;5163267;27;19923;-51
2021/12/09 03:36:29;;;;;;;;;;;22.90;27.40;;;;;;5168552;27;20255;-50
2021/12/09 03:38:55;;;;;;;;;;;23.00;27.30;;;;;;5163058;27;20383;-48
2021/12/09 03:41:21;;;;;;;;;;;22.90;27.30;;;;;;5162790;27;20015;-49
2021/12/09 03:43:47;;;;;;;;;;;23.00;27.20;;;;;;5149364;27;20022;-49
2021/12/09 03:46:13;;;;;;;;;;;23.00;27.10;;;;;;5162512;27;19931;-47
2021/12/09 03:48:38;;;;;;;;;;;23.00;27.10;;;;;;5162483;27;19931;-47
2021/12/09 03:51:04;;;;;;;;;;;23.10;27.00;;;;;;5168537;27;20036;-51
2021/12/09 03:53:30;;;;;;;;;;;22.90;27.20;;;;;;5162650;27;20018;-50
2021/12/09 03:55:56;;;;;;;;;;;23.10;27.00;;;;;;5168138;27;20600;-48
2021/12/09 03:58:22;;;;;;;;;;;23.10;26.90;;;;;;5162704;27;19926;-50
2021/12/09 04:00:48;;;;;;;;;;;22.90;27.10;;;;;;5143816;27;19931;-53
2021/12/09 04:03:16;;;;;;;;;;;22.90;27.00;;;;;;5167672;27;19967;-51
2021/12/09 04:05:42;;;;;;;;;;;22.90;27.00;;;;;;5161939;27;20475;-50
2021/12/09 04:08:07;;;;;;;;;;;22.90;27.10;;;;;;5162405;27;20142;-49
2021/12/09 04:10:33;;;;;;;;;;;23.10;26.90;;;;;;5149435;27;19927;-49
2021/12/09 04:12:59;;;;;;;;;;;22.90;27.00;;;;;;5162262;27;20382;-50
2021/12/09 04:15:25;;;;;;;;;;;22.90;27.00;;;;;;5165446;27;20002;-56
2021/12/09 04:17:51;;;;;;;;;;;23.00;26.90;;;;;;5164994;27;19971;-51
2021/12/09 04:20:17;;;;;;;;;;;23.00;26.90;;;;;;5162041;27;19922;-51
2021/12/09 04:22:48;;;;;;;;;;;23.10;26.80;;;;;;5167353;27;20393;-52
2021/12/09 04:25:15;;;;;;;;;;;23.00;26.90;;;;;;5161689;27;19928;-51
2021/12/09 04:27:40;;;;;;;;;;;23.10;26.90;;;;;;5162342;27;19930;-51
2021/12/09 04:30:06;;;;;;;;;;;23.00;26.90;;;;;;5167547;27;19971;-55
2021/12/09 04:32:32;;;;;;;;;;;23.00;26.80;;;;;;5162015;27;20025;-50
2021/12/09 04:34:58;;;;;;;;;;;23.00;26.70;;;;;;5162116;27;20006;-52
2021/12/09 04:37:24;;;;;;;;;;;22.90;26.80;;;;;;5167257;27;19925;-49
2021/12/09 04:39:49;;;;;;;;;;;23.00;26.70;;;;;;5161816;27;19975;-61
2021/12/09 04:42:15;;;;;;;;;;;23.00;26.70;;;;;;5166945;27;20039;-53
2021/12/09 04:44:41;;;;;;;;;;;22.70;27.10;;;;;;5162002;27;19940;-51
2021/12/09 04:47:07;;;;;;;;;;;22.70;26.90;;;;;;5162196;27;20362;-52
2021/12/09 04:49:32;;;;;;;;;;;22.70;27.00;;;;;;5167475;27;19927;-52
2021/12/09 04:52:00;;;;;;;;;;;22.80;26.90;;;;;;5161996;27;19990;-51
2021/12/09 04:54:25;;;;;;;;;;;22.80;26.90;;;;;;5161535;27;19923;-50
2021/12/09 04:56:52;;;;;;;;;;;22.80;27.00;;;;;;5166813;27;20000;-51
2021/12/09 04:59:18;;;;;;;;;;;22.80;26.90;;;;;;5161431;27;19922;-50
2021/12/09 05:01:48;;;;;;;;;;;22.80;26.80;;;;;;5165949;27;20584;-50
2021/12/09 05:04:14;;;;;;;;;;;22.80;26.80;;;;;;5163079;27;19975;-48
2021/12/09 05:06:40;;;;;;;;;;;22.90;26.80;;;;;;5161704;27;20365;-49
2021/12/09 05:09:10;;;;;;;;;;;22.90;26.70;;;;;;5166932;27;19979;-48
2021/12/09 05:14:02;;;;;;;;;;;23.00;26.60;;;;;;5161228;27;19959;-46
2021/12/09 05:16:28;;;;;;;;;;;23.00;26.60;;;;;;5166530;27;19969;-45
2021/12/09 05:18:58;;;;;;;;;;;23.00;26.50;;;;;;5161330;27;20292;-52
2021/12/09 05:21:34;;;;;;;;;;;22.90;26.70;;;;;;5161067;27;19933;-49
2021/12/09 05:24:00;;;;;;;;;;;22.90;26.80;;;;;;5166888;27;20304;-51
2021/12/09 05:26:30;;;;;;;;;;;22.90;26.70;;;;;;5161363;27;19922;-48
2021/12/09 05:28:57;;;;;;;;;;;22.80;26.80;;;;;;5147452;27;19929;-50
2021/12/09 05:34:07;;;;;;;;;;;22.90;26.80;;;;;;5160847;27;19923;-46
2021/12/09 05:36:33;;;;;;;;;;;22.90;26.90;;;;;;5166245;27;19923;-46
2021/12/09 05:38:59;;;;;;;;;;;23.00;26.80;;;;;;5160809;27;19930;-46
2021/12/09 05:41:24;;;;;;;;;;;23.00;26.80;;;;;;5157533;27;20916;-45
2021/12/09 05:43:50;;;;;;;;;;;23.10;26.60;;;;;;5166682;27;19938;-55
2021/12/09 05:46:16;;;;;;;;;;;23.00;26.60;;;;;;5161110;27;20023;-53
2021/12/09 05:48:42;;;;;;;;;;;22.80;27.00;;;;;;5161039;27;20212;-53
2021/12/09 05:51:08;;;;;;;;;;;22.90;26.90;;;;;;5166407;27;19929;-51
2021/12/09 05:53:33;;;;;;;;;;;22.80;27.00;;;;;;5160751;27;20440;-50
2021/12/09 05:55:59;;;;;;;;;;;22.90;26.70;;;;;;5165317;27;19931;-55
2021/12/09 05:58:25;;;;;;;;;;;22.90;26.70;;;;;;5161649;27;19926;-51
2021/12/09 06:00:51;;;;;;;;;;;22.90;26.50;;;;;;5161196;27;20433;-52
2021/12/09 06:03:19;;;;;;;;;;;22.80;26.50;;;;;;5147775;27;19923;-49
2021/12/09 06:05:45;;;;;;;;;;;22.90;26.40;;;;;;5161247;27;19923;-47
2021/12/09 06:08:10;;;;;;;;;;;22.90;26.30;;;;;;5160706;27;19971;-53
2021/12/09 06:10:37;;;;;;;;;;;22.90;26.20;;;;;;5166122;27;19922;-46
2021/12/09 06:13:03;;;;;;;;;;;23.00;26.20;;;;;;5160561;27;19926;-49
2021/12/09 06:15:29;;;;;;;;;;;23.00;26.10;;;;;;5164551;27;19923;-52
2021/12/09 06:17:55;;;;;;;;;;;23.10;26.00;;;;;;5168881;27;19930;-44
2021/12/09 06:20:20;;;;;;;;;;;23.10;26.00;;;;;;5164620;27;19980;-51
2021/12/09 06:22:46;;;;;;;;;;;23.00;26.00;;;;;;5169651;27;19991;-52
2021/12/09 06:25:17;;;;;;;;;;;22.80;26.20;;;;;;5164105;27;19930;-54
2021/12/09 06:27:44;;;;;;;;;;;22.90;26.20;;;;;;5163884;27;19923;-52
2021/12/09 06:30:10;;;;;;;;;;;23.00;26.20;;;;;;5169259;27;19934;-50
2021/12/09 06:32:35;;;;;;;;;;;22.90;26.20;;;;;;5163770;27;19930;-48
2021/12/09 06:35:03;;;;;;;;;;;23.00;26.10;;;;;;5163740;27;19954;-49
2021/12/09 06:37:28;;;;;;;;;;;23.00;26.10;;;;;;5169580;27;19923;-51
2021/12/09 06:39:54;;;;;;;;;;;23.00;26.10;;;;;;5163900;27;19930;-47
2021/12/09 06:42:20;;;;;;;;;;;22.90;26.10;;;;;;5169620;27;19937;-48
2021/12/09 06:44:46;;;;;;;;;;;23.00;26.10;;;;;;5163889;27;19975;-50
2021/12/09 06:47:12;;;;;;;;;;;23.00;26.10;;;;;;5163420;27;19927;-46
2021/12/09 06:49:37;;;;;;;;;;;23.00;26.10;;;;;;5168962;27;19978;-46
2021/12/09 06:52:03;;;;;;;;;;;23.10;26.10;;;;;;5163190;27;19923;-59
2021/12/09 06:54:29;;;;;;;;;;;23.00;26.10;;;;;;5163725;27;19923;-49
2021/12/09 06:56:55;;;;;;;;;;;22.80;26.30;;;;;;5169191;27;19927;-48
2021/12/09 06:59:21;;;;;;;;;;;22.90;26.10;;;;;;5163655;27;19933;-49
2021/12/09 07:01:47;;;;;;;;;;;22.90;26.00;;;;;;5168897;27;19927;-52
2021/12/09 07:04:12;;;;;;;;;;;22.90;25.90;;;;;;5163958;27;19931;-52
2021/12/09 07:06:38;;;;;;;;;;;23.00;25.80;;;;;;5163374;27;19979;-51
2021/12/09 07:09:04;;;;;;;;;;;23.00;25.80;;;;;;5168715;27;19923;-49
2021/12/09 07:11:31;;;;;;;;;;;22.90;25.80;;;;;;5163037;27;19923;-49
2021/12/09 07:13:57;;;;;;;;;;;23.00;25.70;;;;;;5163497;27;19923;-47
2021/12/09 07:16:23;;;;;;;;;;;23.00;25.60;;;;;;5168920;27;19927;-46
2021/12/09 07:18:49;;;;;;;;;;;23.10;25.60;;;;;;5163443;27;19927;-52
2021/12/09 07:21:15;;;;;;;;;;;23.00;25.60;;;;;;5165591;27;20067;-55
2021/12/09 07:23:40;;;;;;;;;;;23.00;25.50;;;;;;5166402;27;19929;-45
2021/12/09 07:26:06;;;;;;;;;;;23.20;25.40;;;;;;5162839;27;19923;-54
2021/12/09 07:28:32;;;;;;;;;;;23.10;25.40;;;;;;5168280;27;19929;-51
2021/12/09 07:30:58;;;;;;;;;;;23.00;25.50;;;;;;5162995;27;19972;-49
2021/12/09 07:33:24;;;;;;;;;;;22.90;25.60;;;;;;5163364;27;19930;-50
2021/12/09 07:35:49;;;;;;;;;;;23.00;25.70;;;;;;5168493;27;20391;-48
2021/12/09 07:38:15;;;;;;;;;;;23.00;25.80;;;;;;5163258;27;19930;-51
2021/12/09 07:40:41;;;;;;;;;;;23.00;25.80;;;;;;5163179;27;19955;-54
2021/12/09 07:43:07;;;;;;;;;;;23.00;25.70;;;;;;5168204;27;19930;-48
2021/12/09 07:45:33;;;;;;;;;;;23.00;25.60;;;;;;5162579;27;20356;-50
2021/12/09 07:47:58;;;;;;;;;;;23.10;25.50;;;;;;5167669;27;20018;-47
2021/12/09 07:50:26;;;;;;;;;;;23.10;25.50;;;;;;5163142;27;19930;-56
2021/12/09 07:52:52;;;;;;;;;;;23.00;25.60;;;;;;5162893;27;20377;-51
2021/12/09 07:55:19;;;;;;;;;;;23.00;25.40;;;;;;5168035;27;19938;-51
2021/12/09 07:57:44;;;;;;;;;;;23.00;25.50;;;;;;5162529;27;20300;-53
2021/12/09 08:00:12;;;;;;;;;;;23.00;25.50;;;;;;5162225;27;19937;-52
2021/12/09 08:02:40;;;;;;;;;;;23.00;25.50;;;;;;5167625;27;20126;-50
2021/12/09 08:05:07;;;;;;;;;;;23.00;25.40;;;;;;5162107;27;19922;-49
2021/12/09 08:07:32;;;;;;;;;;;23.00;25.40;;;;;;5167859;27;19944;-51
2021/12/09 08:09:58;;;;;;;;;;;23.10;25.40;;;;;;5162728;27;19923;-48
2021/12/09 08:12:24;;;;;;;;;;;23.00;25.50;;;;;;5141700;27;19927;-47
2021/12/09 08:14:50;;;;;;;;;;;23.10;25.30;;;;;;5167970;27;19930;-45
2021/12/09 08:20:14;;;;;;;;;;;23.10;25.30;;;;;;5143961;27;20073;-46
2021/12/09 08:22:41;;;;;;;;;;;23.20;25.30;;;;;;5167638;27;20043;-57
2021/12/09 08:25:07;;;;;;;;;;;22.90;25.40;;;;;;5161747;27;19922;-51
2021/12/09 08:27:33;;;;;;;;;;;22.90;25.60;;;;;;5162478;27;19923;-52
2021/12/09 08:30:04;;;;;;;;;;;22.90;25.70;;;;;;5167867;27;20270;-51
2021/12/09 08:32:31;;;;;;;;;;;22.90;25.70;;;;;;5162152;27;19945;-48
2021/12/09 08:34:57;;;;;;;;;;;23.00;25.60;;;;;;5161856;27;19966;-52
2021/12/09 08:37:22;;;;;;;;;;;23.00;25.60;;;;;;5166210;27;19927;-50
2021/12/09 08:39:48;;;;;;;;;;;23.00;25.50;;;;;;5142937;27;19923;-47
2021/12/09 08:42:14;;;;;;;;;;;23.10;25.50;;;;;;5166936;27;19980;-51
2021/12/09 08:44:40;;;;;;;;;;;23.20;25.50;;;;;;5143045;27;19930;-47
2021/12/09 08:47:06;;;;;;;;;;;23.10;25.60;;;;;;5143246;27;19998;-48
2021/12/09 08:49:32;;;;;;;;;;;23.20;25.50;;;;;;5167414;27;19941;-55
2021/12/09 08:51:58;;;;;;;;;;;23.10;25.50;;;;;;5143500;27;20046;-50
2021/12/09 08:54:24;;;;;;;;;;;23.00;25.60;;;;;;5161315;27;20229;-53
2021/12/09 08:56:51;;;;;;;;;;;22.90;25.70;;;;;;5166077;27;21365;-52
2021/12/09 08:59:17;;;;;;;;;;;23.00;25.70;;;;;;5157106;27;19980;-50
2021/12/09 09:01:43;;;;;;;;;;;23.00;25.80;;;;;;5145136;27;19933;-48
2021/12/09 09:04:09;;;;;;;;;;;23.00;25.80;;;;;;5141111;27;20034;-51
2021/12/09 09:06:35;;;;;;;;;;;23.10;25.80;;;;;;5140922;27;19931;-49
2021/12/09 09:09:01;;;;;;;;;;;23.00;25.70;;;;;;5146317;27;20028;-50
2021/12/09 09:11:26;;;;;;;;;;;23.00;25.70;;;;;;5140693;27;20437;-52
2021/12/09 09:13:52;;;;;;;;;;;23.00;25.60;;;;;;5140610;27;19927;-49
2021/12/09 09:16:18;;;;;;;;;;;23.10;25.50;;;;;;5144572;27;19923;-52
2021/12/09 09:18:44;;;;;;;;;;;23.20;25.50;;;;;;5140271;27;19923;-49
2021/12/09 09:21:09;;;;;;;;;;;23.10;25.60;;;;;;5144796;27;19930;-51
2021/12/09 09:23:35;;;;;;;;;;;23.20;25.50;;;;;;5141985;27;19927;-60
2021/12/09 09:26:01;;;;;;;;;;;23.10;25.50;;;;;;5140629;27;20393;-53
2021/12/09 09:28:27;;;;;;;;;;;23.00;25.80;;;;;;5146085;27;20386;-50
2021/12/09 09:30:53;;;;;;;;;;;22.90;25.90;;;;;;5140457;27;19934;-52
2021/12/09 09:33:20;;;;;;;;;;;23.00;25.70;;;;;;5140270;27;19926;-50
2021/12/09 09:35:46;;;;;;;;;;;23.10;25.60;;;;;;5127189;27;19923;-47
2021/12/09 09:38:12;;;;;;;;;;;23.10;25.60;;;;;;5139896;27;19981;-47
2021/12/09 09:40:49;;;;;;;;;;;23.20;25.60;;;;;;5142152;27;19923;-53
2021/12/09 09:43:32;;;;;;;;;;;23.20;25.50;;;;;;5145962;27;19923;-50
2021/12/09 09:45:59;;;;;;;;;;;23.10;25.70;;;;;;5138981;27;19941;-53
2021/12/09 09:48:25;;;;;;;;;;;23.00;25.80;;;;;;5143094;27;19944;-56
2021/12/09 09:50:51;;;;;;;;;;;23.00;25.90;;;;;;5148495;27;19926;-50
2021/12/09 09:53:17;;;;;;;;;;;23.00;25.80;;;;;;5143360;27;19927;-50
2021/12/09 09:55:46;;;;;;;;;;;23.00;25.80;;;;;;5148908;27;20018;-48
2021/12/09 09:58:12;;;;;;;;;;;23.10;25.70;;;;;;5143333;27;20322;-53
2021/12/09 10:00:37;;;;;;;;;;;23.10;25.70;;;;;;5143908;27;19949;-52
2021/12/09 10:03:06;;;;;;;;;;;23.10;25.70;;;;;;5148956;27;20271;-52
2021/12/09 10:05:36;;;;;;;;;;;23.10;25.80;;;;;;5143780;27;19923;-49
2021/12/09 10:08:03;;;;;;;;;;;23.00;26.00;;;;;;5143305;27;19923;-51
2021/12/09 10:10:29;;;;;;;;;;;23.00;26.10;;;;;;5148647;27;19923;-51
2021/12/09 10:13:04;;;;;;;;;;;22.90;26.30;;;;;;5143245;27;19975;-49
2021/12/09 10:15:33;;;;;;;;;;;23.00;26.10;;;;;;5143947;27;20018;-52
2021/12/09 10:17:59;;;;;;;;;;;23.00;26.00;;;;;;5148980;27;20445;-53
2021/12/09 10:20:40;;;;;;;;;;;22.90;26.20;;;;;;5143500;27;19927;-52
2021/12/09 10:23:21;;;;;;;;;;;22.80;26.20;;;;;;5148479;27;20336;-56
2021/12/09 10:25:47;;;;;;;;;;;22.90;26.20;;;;;;5148807;27;19931;-52
2021/12/09 10:28:12;;;;;;;;;;;23.00;26.00;;;;;;5107629;27;19923;-47
2021/12/09 10:30:40;;;;;;;;;;;23.10;26.00;;;;;;5129914;27;19926;-59
2021/12/09 10:33:05;;;;;;;;;;;23.00;26.00;;;;;;5142798;27;19934;-51
2021/12/09 10:35:31;;;;;;;;;;;23.00;26.00;;;;;;5142904;27;19923;-52
2021/12/09 10:37:57;;;;;;;;;;;23.10;26.00;;;;;;5148835;27;19927;-51
2021/12/09 10:40:26;;;;;;;;;;;23.10;25.90;;;;;;5124638;27;20212;-53
2021/12/09 10:42:53;;;;;;;;;;;23.10;26.00;;;;;;5143210;27;20020;-49
2021/12/09 10:45:23;;;;;;;;;;;23.00;25.90;;;;;;5148101;27;19931;-53
2021/12/09 10:47:57;;;;;;;;;;;23.10;25.90;;;;;;5142465;27;20319;-50
2021/12/09 10:50:36;;;;;;;;;;;23.10;26.00;;;;;;5124934;27;20449;-57
2021/12/09 10:53:51;;;;;;;;;;;23.00;26.10;;;;;;5147896;27;19923;-55
2021/12/09 10:55:53;;;;;;;;;;;23.10;26.10;;;;;;5131797;27;19929;-47
2021/12/09 10:58:20;;;;;;;;;;;23.10;26.00;;;;;;5142445;27;20167;-51
2021/12/09 11:00:53;;;;;;;;;;;23.20;26.00;;;;;;5147546;27;19933;-52
2021/12/09 11:03:18;;;;;;;;;;;23.20;26.10;;;;;;5124105;27;19934;-52
2021/12/09 11:05:52;;;;;;;;;;;23.20;26.00;;;;;;5146076;27;19930;-57
2021/12/09 11:08:19;;;;;;;;;;;23.00;26.20;;;;;;5147791;27;19923;-48
2021/12/09 11:10:47;;;;;;;;;;;23.10;26.10;;;;;;5141998;27;19933;-49
2021/12/09 11:13:18;;;;;;;;;;;23.20;26.00;;;;;;5148215;27;20001;-57
2021/12/09 11:15:54;;;;;;;;;;;23.10;26.00;;;;;;5142892;27;19973;-51
2021/12/09 11:18:26;;;;;;;;;;;23.00;26.10;;;;;;5142478;27;19926;-51
2021/12/09 11:20:52;;;;;;;;;;;23.10;26.00;;;;;;5147894;27;19931;-50
2021/12/09 11:23:29;;;;;;;;;;;23.00;26.10;;;;;;5142332;27;19930;-55
2021/12/09 11:25:58;;;;;;;;;;;22.90;26.30;;;;;;5142111;27;20025;-54
2021/12/09 11:28:26;;;;;;;;;;;22.90;26.20;;;;;;5147189;27;19926;-53
2021/12/09 11:31:04;;;;;;;;;;;23.00;26.10;;;;;;5142252;27;19973;-52
2021/12/09 11:33:32;;;;;;;;;;;23.00;26.00;;;;;;5142399;27;19949;-50
2021/12/09 11:35:58;;;;;;;;;;;23.10;26.00;;;;;;5128887;27;20305;-50
2021/12/09 11:38:33;;;;;;;;;;;23.20;26.10;;;;;;5122967;27;19937;-51
2021/12/09 11:40:59;;;;;;;;;;;23.10;26.10;;;;;;5141961;27;19923;-50
2021/12/09 11:43:25;;;;;;;;;;;23.00;26.20;;;;;;5128592;27;19989;-50
2021/12/09 11:45:51;;;;;;;;;;;23.10;26.20;;;;;;5141627;27;20010;-60
2021/12/09 11:48:17;;;;;;;;;;;23.10;26.10;;;;;;5127546;27;19923;-54
2021/12/09 11:50:47;;;;;;;;;;;23.00;26.20;;;;;;5143591;27;20059;-50
2021/12/09 11:53:15;;;;;;;;;;;23.00;26.20;;;;;;5141886;27;19927;-54
2021/12/09 11:55:49;;;;;;;;;;;23.10;26.10;;;;;;5147285;27;20388;-49
2021/12/09 11:58:21;;;;;;;;;;;23.00;26.20;;;;;;5141587;27;20026;-52
2021/12/09 12:11:58;;;;;;;;;;;23.00;26.40;;;;;;5140186;27;20202;-57
2021/12/09 12:14:28;;;;;;;;;;;23.10;26.30;;;;;;5147327;27;20051;-57
2021/12/09 12:17:09;;;;;;;;;;;22.80;26.50;;;;;;5141315;27;19927;-54
2021/12/09 12:19:50;;;;;;;;;;;22.90;26.50;;;;;;5141417;27;20033;-53
2021/12/09 12:25:33;;;;;;;;;;;23.00;26.30;;;;;;5138544;27;19927;-48
2021/12/09 12:28:42;;;;;;;;;;;23.00;26.30;;;;;;5141753;27;19927;-61
2021/12/09 12:31:43;;;;;;;;;;;23.00;26.40;;;;;;5120119;27;19923;-53
2021/12/09 12:42:34;;;;;;;;;;;23.10;26.20;;;;;;5145894;27;19927;-52
2021/12/09 12:47:53;;;;;;;;;;;22.90;25.70;;;;;;5141165;27;19923;-54
2021/12/09 12:50:21;;;;;;;;;;;23.00;25.40;;;;;;5143076;27;20014;-56
2021/12/09 12:52:47;;;;;;;;;;;22.90;25.40;;;;;;5146501;27;19923;-53
2021/12/09 12:55:14;;;;;;;;;;;22.90;25.20;;;;;;5140582;27;19934;-54
2021/12/09 12:57:42;;;;;;;;;;;23.00;25.10;;;;;;5146010;27;19946;-55
2021/12/09 13:00:09;;;;;;;;;;;22.80;25.40;;;;;;5140589;27;19929;-55
2021/12/09 13:05:43;;;;;;;;;;;23.00;24.90;;;;;;5146118;27;20131;-50
2021/12/09 13:13:37;;;;;;;;;;;22.60;25.40;;;;;;5145919;27;19960;-51
2021/12/09 13:16:49;;;;;;;;;;;22.80;25.00;;;;;;5145739;27;20286;-50
2021/12/09 13:19:29;;;;;;;;;;;23.00;24.80;;;;;;5136129;27;19923;-51
2021/12/09 13:22:00;;;;;;;;;;;23.00;24.70;;;;;;5137022;27;19923;-53
2021/12/09 13:24:46;;;;;;;;;;;23.00;24.80;;;;;;5149460;27;20030;-49
2021/12/09 13:27:38;;;;;;;;;;;23.10;24.60;;;;;;5144244;27;20022;-52
2021/12/09 13:33:35;;;;;;;;;;;23.10;24.80;;;;;;5146530;27;19923;-54
2021/12/09 13:47:15;;;;;;;;;;;23.00;25.50;;;;;;5148739;27;20025;-49
2021/12/09 13:50:00;;;;;;;;;;;23.00;25.40;;;;;;5143883;27;19977;-49
2021/12/09 13:55:18;;;;;;;;;;;23.10;25.40;;;;;;5147111;27;19930;-50
2021/12/09 13:57:44;;;;;;;;;;;23.10;25.60;;;;;;5143182;27;19927;-50
2021/12/09 14:00:12;;;;;;;;;;;23.10;25.50;;;;;;5143943;27;19923;-52
2021/12/09 14:02:38;;;;;;;;;;;22.90;25.70;;;;;;5149186;27;20045;-53
2021/12/09 14:05:04;;;;;;;;;;;22.90;25.60;;;;;;5143557;27;20010;-50
2021/12/09 14:07:33;;;;;;;;;;;23.00;25.60;;;;;;5148939;27;19930;-48
2021/12/09 14:10:01;;;;;;;;;;;23.00;25.60;;;;;;5143224;27;19945;-50
2021/12/09 14:12:31;;;;;;;;;;;23.10;25.50;;;;;;5143195;27;20321;-51
2021/12/09 14:15:07;;;;;;;;;;;22.90;25.50;;;;;;5148225;27;20469;-51
2021/12/09 14:17:33;;;;;;;;;;;23.10;25.30;;;;;;5143371;27;19975;-56
2021/12/09 14:20:00;;;;;;;;;;;23.10;25.30;;;;;;5143278;27;19930;-53
2021/12/09 14:22:26;;;;;;;;;;;23.00;25.30;;;;;;5148454;27;20378;-54
2021/12/09 14:24:52;;;;;;;;;;;23.00;25.20;;;;;;5123751;27;19923;-51
2021/12/09 14:27:19;;;;;;;;;;;23.00;25.10;;;;;;5143121;27;19959;-49
2021/12/09 14:29:46;;;;;;;;;;;22.90;25.20;;;;;;5146308;27;20221;-51
2021/12/09 14:32:11;;;;;;;;;;;23.00;25.00;;;;;;5142802;27;20220;-49
2021/12/09 14:34:40;;;;;;;;;;;23.10;24.80;;;;;;5147115;27;19923;-57
2021/12/09 14:37:06;;;;;;;;;;;22.80;25.00;;;;;;5143509;27;19923;-51
2021/12/09 14:39:31;;;;;;;;;;;22.90;24.90;;;;;;5143119;27;19959;-50
2021/12/09 14:42:05;;;;;;;;;;;23.00;24.80;;;;;;5148554;27;19927;-50
2021/12/09 14:44:31;;;;;;;;;;;23.10;24.60;;;;;;5143514;27;19930;-57
2021/12/09 14:47:10;;;;;;;;;;;22.70;24.80;;;;;;5142632;27;19934;-54
2021/12/09 14:49:42;;;;;;;;;;;22.80;24.60;;;;;;5148289;27;19927;-52
2021/12/09 14:52:08;;;;;;;;;;;22.80;24.70;;;;;;5142301;27;20029;-51
2021/12/09 14:54:33;;;;;;;;;;;22.90;24.50;;;;;;5143128;27;20281;-53
2021/12/09 14:57:05;;;;;;;;;;;22.90;24.50;;;;;;5148330;27;19923;-51
2021/12/09 14:59:34;;;;;;;;;;;22.90;24.40;;;;;;5142854;27;19929;-51
2021/12/09 15:02:02;;;;;;;;;;;23.10;24.30;;;;;;5143093;27;19923;-55
2021/12/09 15:04:34;;;;;;;;;;;23.00;24.20;;;;;;5147886;27;19931;-47
2021/12/09 15:07:01;;;;;;;;;;;23.00;24.30;;;;;;5142509;27;19934;-55
2021/12/09 15:09:27;;;;;;;;;;;22.80;24.60;;;;;;5147850;27;19927;-53
2021/12/09 15:11:54;;;;;;;;;;;22.80;24.70;;;;;;5142146;27;20366;-51
2021/12/09 15:14:25;;;;;;;;;;;22.90;24.60;;;;;;5142765;27;19950;-54
2021/12/09 15:17:04;;;;;;;;;;;22.90;24.50;;;;;;5147820;27;19923;-51
2021/12/09 15:19:30;;;;;;;;;;;22.90;24.50;;;;;;5142520;27;20362;-51